Time;durP1;ratioP1;P1;durP2;ratioP2;P2;SDS_P1;SDS_P2;PMS_P1;PMS_P2;Temp;Humidity;BMP_temperature;BMP_pressure;BME280_temperature;BME280_humidity;BME280_pressure;Samples;Min_cycle;Max_cycle;Signal;HPM_P1;HPM_P2
2022/04/26 03:37:25;;;;;;;19.15;7.20;;;;;;;;;;5041322;28;20040;-82
2022/04/26 03:39:51;;;;;;;25.80;7.25;;;;;;;;;;5044260;28;20263;-82
2022/04/26 03:42:17;;;;;;;21.58;7.25;;;;;;;;;;5039167;28;20307;-82
2022/04/26 03:44:42;;;;;;;14.48;6.35;;;;;;;;;;5041599;23;20036;-59
2022/04/26 03:47:08;;;;;;;20.85;6.82;;;;;;;;;;5074551;28;20660;-59
2022/04/26 03:49:34;;;;;;;16.10;7.13;;;;;;;;;;5076266;28;20031;-59
2022/04/26 03:52:00;;;;;;;17.27;6.78;;;;;;;;;;5058685;28;20036;-59
2022/04/26 03:54:25;;;;;;;15.25;7.05;;;;;;;;;;5076965;28;20032;-59
2022/04/26 03:56:51;;;;;;;13.85;6.90;;;;;;;;;;5055636;28;20119;-59
2022/04/26 03:59:19;;;;;;;13.15;6.95;;;;;;;;;;5059513;28;20044;-59
2022/04/26 04:01:45;;;;;;;15.15;7.43;;;;;;;;;;5051666;28;20031;-59
2022/04/26 04:04:10;;;;;;;18.05;7.90;;;;;;;;;;5052080;28;20087;-59
2022/04/26 04:06:36;;;;;;;12.88;7.10;;;;;;;;;;5057461;28;20052;-59
2022/04/26 04:09:02;;;;;;;17.33;7.38;;;;;;;;;;5062095;28;20044;-59
2022/04/26 04:11:28;;;;;;;23.42;7.95;;;;;;;;;;5056973;28;20037;-59
2022/04/26 04:13:54;;;;;;;22.30;8.38;;;;;;;;;;5055114;28;20484;-59
2022/04/26 04:16:19;;;;;;;23.08;8.57;;;;;;;;;;5053691;28;20056;-59
2022/04/26 04:21:28;;;;;;;16.67;8.43;;;;;;;;;;5056913;28;20063;-59
2022/04/26 04:23:54;;;;;;;30.50;9.02;;;;;;;;;;5060738;28;20123;-59
2022/04/26 04:26:19;;;;;;;22.63;9.25;;;;;;;;;;5066120;28;20733;-58
2022/04/26 04:28:45;;;;;;;20.02;9.80;;;;;;;;;;5062086;28;20037;-58
2022/04/26 04:31:11;;;;;;;34.65;10.32;;;;;;;;;;5056256;28;20029;-59
2022/04/26 04:33:37;;;;;;;18.38;9.77;;;;;;;;;;5062222;28;20032;-58
2022/04/26 04:36:03;;;;;;;28.95;10.35;;;;;;;;;;5064755;28;20036;-59
2022/04/26 04:38:29;;;;;;;22.80;9.77;;;;;;;;;;5063377;28;20485;-58
2022/04/26 04:40:54;;;;;;;28.67;10.27;;;;;;;;;;5063322;28;20051;-58
2022/04/26 04:43:20;;;;;;;26.30;9.98;;;;;;;;;;5058406;28;20125;-60
2022/04/26 04:45:47;;;;;;;24.67;10.52;;;;;;;;;;5065111;28;20089;-60
2022/04/26 04:48:12;;;;;;;24.20;10.25;;;;;;;;;;5059710;28;20396;-60
2022/04/26 04:50:38;;;;;;;21.55;9.80;;;;;;;;;;5068776;28;20032;-58
2022/04/26 04:53:03;;;;;;;25.42;9.90;;;;;;;;;;5066515;28;20028;-60
2022/04/26 04:55:29;;;;;;;19.23;9.38;;;;;;;;;;5068107;28;20031;-60
2022/04/26 04:57:55;;;;;;;19.80;9.15;;;;;;;;;;5061288;28;20791;-59
2022/04/26 05:00:20;;;;;;;21.17;8.50;;;;;;;;;;5055218;28;20028;-59
2022/04/26 05:02:45;;;;;;;27.83;9.77;;;;;;;;;;5060667;28;20399;-60
2022/04/26 05:05:12;;;;;;;20.95;9.75;;;;;;;;;;5057332;28;20383;-59
2022/04/26 05:07:38;;;;;;;26.40;10.95;;;;;;;;;;5057832;28;20364;-60
2022/04/26 05:10:05;;;;;;;24.63;9.27;;;;;;;;;;5058488;28;20029;-58
2022/04/26 05:12:30;;;;;;;23.42;10.40;;;;;;;;;;5046381;28;20029;-59
2022/04/26 05:14:56;;;;;;;22.17;9.52;;;;;;;;;;5059980;28;20024;-59
2022/04/26 05:17:22;;;;;;;23.30;10.05;;;;;;;;;;5062902;28;20048;-60
2022/04/26 05:19:47;;;;;;;19.45;9.50;;;;;;;;;;5061312;28;20518;-58
2022/04/26 05:22:14;;;;;;;25.38;9.57;;;;;;;;;;5039260;28;20063;-60
2022/04/26 05:24:58;;;;;;;22.23;9.63;;;;;;;;;;5045051;28;20035;-59
2022/04/26 05:27:26;;;;;;;29.38;10.88;;;;;;;;;;5061118;28;20037;-59
2022/04/26 05:29:52;;;;;;;21.05;10.07;;;;;;;;;;5060267;28;20047;-60
2022/04/26 05:32:25;;;;;;;19.70;10.13;;;;;;;;;;5041128;28;20141;-60
2022/04/26 05:35:03;;;;;;;27.10;9.95;;;;;;;;;;5059449;28;20510;-60
2022/04/26 05:37:31;;;;;;;26.20;11.35;;;;;;;;;;5064694;28;20311;-60
2022/04/26 05:39:57;;;;;;;22.45;10.05;;;;;;;;;;5054992;28;20025;-60
2022/04/26 05:42:23;;;;;;;22.10;11.13;;;;;;;;;;5060249;28;20078;-60
2022/04/26 05:44:49;;;;;;;26.35;11.60;;;;;;;;;;5041391;28;20056;-60
2022/04/26 05:47:15;;;;;;;26.75;12.05;;;;;;;;;;5063346;28;20032;-60
2022/04/26 05:49:40;;;;;;;28.25;12.45;;;;;;;;;;5060593;28;20484;-60
2022/04/26 05:52:06;;;;;;;27.98;12.68;;;;;;;;;;5061183;28;20037;-60
2022/04/26 05:54:32;;;;;;;32.83;13.40;;;;;;;;;;5054233;28;20496;-60
2022/04/26 05:56:58;;;;;;;33.08;13.93;;;;;;;;;;5058725;28;20049;-59
2022/04/26 05:59:24;;;;;;;46.30;14.85;;;;;;;;;;5056922;28;20402;-58
2022/04/26 06:01:51;;;;;;;32.00;14.20;;;;;;;;;;5056133;28;20032;-59
2022/04/26 06:04:17;;;;;;;41.20;15.15;;;;;;;;;;5060013;28;20083;-58
2022/04/26 06:06:42;;;;;;;40.28;15.45;;;;;;;;;;5055818;28;20020;-59
2022/04/26 06:09:15;;;;;;;34.85;16.00;;;;;;;;;;5033971;28;20028;-58
2022/04/26 06:11:40;;;;;;;42.15;16.23;;;;;;;;;;5059202;28;20500;-58
2022/04/26 06:14:06;;;;;;;34.05;15.52;;;;;;;;;;5057769;28;20035;-58
2022/04/26 06:16:32;;;;;;;35.78;15.43;;;;;;;;;;5057263;28;20029;-59
2022/04/26 06:18:58;;;;;;;38.75;16.58;;;;;;;;;;5053067;28;20082;-59
2022/04/26 06:21:23;;;;;;;39.28;15.20;;;;;;;;;;5057286;28;20027;-59
2022/04/26 06:23:49;;;;;;;38.08;15.68;;;;;;;;;;5059302;28;20398;-59
2022/04/26 06:26:14;;;;;;;35.13;15.93;;;;;;;;;;5058201;28;20024;-59
2022/04/26 06:28:40;;;;;;;39.85;16.58;;;;;;;;;;5055014;28;20041;-59
2022/04/26 06:31:05;;;;;;;35.83;14.95;;;;;;;;;;5058100;28;20047;-59
2022/04/26 06:33:33;;;;;;;34.88;15.88;;;;;;;;;;5061592;28;20032;-59
2022/04/26 06:35:58;;;;;;;40.80;15.98;;;;;;;;;;5059210;28;20072;-60
2022/04/26 06:38:24;;;;;;;30.75;13.80;;;;;;;;;;5057613;28;20436;-59
2022/04/26 06:40:50;;;;;;;37.10;15.18;;;;;;;;;;5057659;28;20416;-60
2022/04/26 06:43:16;;;;;;;32.30;13.85;;;;;;;;;;5055504;28;20037;-60
2022/04/26 06:45:41;;;;;;;36.10;14.65;;;;;;;;;;5053869;28;20036;-60
2022/04/26 06:48:11;;;;;;;37.03;14.82;;;;;;;;;;5060980;28;20059;-60
2022/04/26 06:50:38;;;;;;;29.80;13.90;;;;;;;;;;5056095;28;20021;-58
2022/04/26 06:53:04;;;;;;;31.33;13.95;;;;;;;;;;5059324;28;20036;-58
2022/04/26 06:55:30;;;;;;;34.65;14.30;;;;;;;;;;5059208;28;20398;-58
2022/04/26 06:57:57;;;;;;;44.67;15.90;;;;;;;;;;5055884;28;20020;-59
2022/04/26 07:00:22;;;;;;;37.58;13.50;;;;;;;;;;5059551;28;20036;-59
2022/04/26 07:02:48;;;;;;;33.03;13.90;;;;;;;;;;5057745;28;20562;-58
2022/04/26 07:05:17;;;;;;;39.38;13.23;;;;;;;;;;5041968;28;20534;-57
2022/04/26 07:07:43;;;;;;;42.15;13.43;;;;;;;;;;5054052;28;20078;-57
2022/04/26 07:10:09;;;;;;;29.88;12.27;;;;;;;;;;5052837;28;20033;-57
2022/04/26 07:12:42;;;;;;;32.25;12.43;;;;;;;;;;5058477;28;20037;-57
2022/04/26 07:18:36;;;;;;;42.33;13.18;;;;;;;;;;5060194;28;20224;-74
2022/04/26 07:21:01;;;;;;;36.20;11.80;;;;;;;;;;5065561;28;20016;-74
2022/04/26 07:23:27;;;;;;;38.03;11.15;;;;;;;;;;5051903;28;20090;-74
2022/04/26 07:25:54;;;;;;;33.58;11.63;;;;;;;;;;5046476;28;20013;-74
2022/04/26 07:28:20;;;;;;;30.20;13.23;;;;;;;;;;5050962;28;20055;-74
2022/04/26 07:30:45;;;;;;;29.88;12.05;;;;;;;;;;5038544;28;20016;-74
2022/04/26 07:35:55;;;;;;;28.55;11.25;;;;;;;;;;5069888;28;20020;-76
2022/04/26 07:38:21;;;;;;;36.60;11.82;;;;;;;;;;5073752;28;20458;-77
2022/04/26 07:40:46;;;;;;;29.48;10.30;;;;;;;;;;5051157;28;20080;-76
2022/04/26 07:43:13;;;;;;;34.03;12.27;;;;;;;;;;5049360;28;20100;-76
2022/04/26 07:45:40;;;;;;;39.15;11.52;;;;;;;;;;5051002;28;20294;-76
2022/04/26 07:48:08;;;;;;;28.13;12.18;;;;;;;;;;5052407;28;20312;-75
2022/04/26 07:50:35;;;;;;;28.95;11.68;;;;;;;;;;5064573;28;20268;-76
2022/04/26 07:53:01;;;;;;;39.15;11.88;;;;;;;;;;5039731;28;20099;-76
2022/04/26 07:55:28;;;;;;;38.70;13.32;;;;;;;;;;5051597;28;20013;-76
2022/04/26 07:57:54;;;;;;;29.73;12.30;;;;;;;;;;5049613;28;20267;-76
2022/04/26 08:00:19;;;;;;;42.03;12.50;;;;;;;;;;5021796;28;20051;-76
2022/04/26 08:02:45;;;;;;;37.47;12.02;;;;;;;;;;5031471;28;20227;-76
2022/04/26 08:05:12;;;;;;;33.15;12.15;;;;;;;;;;5059864;28;20140;-76
2022/04/26 08:07:39;;;;;;;27.45;11.23;;;;;;;;;;5049244;28;20252;-76
2022/04/26 08:10:09;;;;;;;29.50;12.10;;;;;;;;;;5036820;28;20087;-76
2022/04/26 08:12:37;;;;;;;39.28;12.40;;;;;;;;;;5032932;28;20288;-76
2022/04/26 08:15:03;;;;;;;37.95;11.63;;;;;;;;;;5042934;28;20064;-75
2022/04/26 08:17:28;;;;;;;28.83;12.10;;;;;;;;;;5031335;28;20025;-76
2022/04/26 08:19:54;;;;;;;23.15;11.15;;;;;;;;;;5039980;28;20029;-75
2022/04/26 08:22:21;;;;;;;35.63;11.82;;;;;;;;;;5058978;28;20009;-76
2022/04/26 08:27:33;;;;;;;33.83;11.15;;;;;;;;;;5039070;28;20036;-76
2022/04/26 08:29:59;;;;;;;37.30;11.15;;;;;;;;;;5025502;28;20307;-76
2022/04/26 08:32:28;;;;;;;20.83;9.95;;;;;;;;;;5039506;28;20017;-76
2022/04/26 08:34:54;;;;;;;35.25;11.57;;;;;;;;;;5038554;28;20052;-76
2022/04/26 08:37:20;;;;;;;36.70;10.82;;;;;;;;;;5054550;28;20314;-76
2022/04/26 08:39:47;;;;;;;28.80;11.80;;;;;;;;;;5022367;28;20071;-76
2022/04/26 08:42:14;;;;;;;23.33;10.30;;;;;;;;;;5053766;28;20041;-77
2022/04/26 08:44:40;;;;;;;32.53;12.60;;;;;;;;;;5028152;28;20017;-76
2022/04/26 08:52:50;;;;;;;32.00;11.13;;;;;;;;;;5057741;28;20079;-74
2022/04/26 08:55:16;;;;;;;38.28;11.15;;;;;;;;;;5035511;28;20021;-75
2022/04/26 08:57:42;;;;;;;31.95;10.82;;;;;;;;;;5035794;28;20024;-76
2022/04/26 09:00:11;;;;;;;25.75;10.82;;;;;;;;;;5053427;28;21088;-76
2022/04/26 09:02:37;;;;;;;24.98;10.48;;;;;;;;;;5053968;28;20200;-76
2022/04/26 09:05:13;;;;;;;20.20;9.55;;;;;;;;;;5021433;28;20298;-75
2022/04/26 09:07:39;;;;;;;26.88;10.18;;;;;;;;;;5059411;28;20167;-76
2022/04/26 09:10:13;;;;;;;30.70;10.27;;;;;;;;;;5055238;28;20009;-76
2022/04/26 09:13:12;;;;;;;22.40;10.20;;;;;;;;;;5036539;28;20021;-75
2022/04/26 09:15:50;;;;;;;26.63;10.95;;;;;;;;;;5031856;28;20033;-75
2022/04/26 09:18:27;;;;;;;31.55;10.02;;;;;;;;;;5049835;28;20024;-76
2022/04/26 09:21:09;;;;;;;35.83;12.15;;;;;;;;;;5044062;28;20031;-76
2022/04/26 09:23:38;;;;;;;22.55;10.45;;;;;;;;;;5038328;28;20078;-76
2022/04/26 09:26:07;;;;;;;33.60;11.73;;;;;;;;;;5060336;28;20028;-76
2022/04/26 09:28:33;;;;;;;28.95;10.85;;;;;;;;;;5057623;28;20160;-76
2022/04/26 09:30:59;;;;;;;28.30;10.10;;;;;;;;;;5038694;28;20203;-75
2022/04/26 09:33:49;;;;;;;24.45;10.85;;;;;;;;;;5048213;28;20009;-76
2022/04/26 09:36:18;;;;;;;26.58;10.27;;;;;;;;;;5042144;28;20193;-76
2022/04/26 09:38:57;;;;;;;26.73;10.68;;;;;;;;;;5038393;28;20276;-76
2022/04/26 09:41:25;;;;;;;31.98;10.82;;;;;;;;;;5022009;28;20102;-75
2022/04/26 09:44:05;;;;;;;32.17;11.88;;;;;;;;;;5040171;28;20021;-76
2022/04/26 09:46:40;;;;;;;28.98;11.65;;;;;;;;;;5057672;28;20024;-75
2022/04/26 09:49:05;;;;;;;29.58;11.93;;;;;;;;;;5049832;28;20040;-76
2022/04/26 09:51:31;;;;;;;31.98;11.57;;;;;;;;;;5035543;28;20025;-76
2022/04/26 09:53:57;;;;;;;45.75;13.57;;;;;;;;;;5041929;28;20100;-75
2022/04/26 09:56:25;;;;;;;26.92;11.80;;;;;;;;;;5016088;28;20028;-79
2022/04/26 09:58:55;;;;;;;26.40;11.98;;;;;;;;;;5051829;28;20086;-75
2022/04/26 10:01:20;;;;;;;36.20;11.18;;;;;;;;;;5033683;28;20443;-75
2022/04/26 10:03:49;;;;;;;34.33;11.30;;;;;;;;;;5036984;28;20059;-75
2022/04/26 10:06:16;;;;;;;26.92;12.23;;;;;;;;;;5052620;28;20012;-75
2022/04/26 10:08:42;;;;;;;30.52;12.30;;;;;;;;;;5056792;28;20103;-79
2022/04/26 10:11:07;;;;;;;26.50;11.65;;;;;;;;;;5032398;28;20025;-75
2022/04/26 10:13:36;;;;;;;29.08;12.93;;;;;;;;;;5014532;28;20028;-78
2022/04/26 10:16:06;;;;;;;29.85;11.82;;;;;;;;;;5030173;28;20045;-76
2022/04/26 10:18:47;;;;;;;30.23;12.82;;;;;;;;;;5015849;28;20040;-74
2022/04/26 10:21:35;;;;;;;26.48;10.73;;;;;;;;;;5037905;28;20278;-75
2022/04/26 10:24:04;;;;;;;33.28;12.05;;;;;;;;;;5042351;28;20024;-75
2022/04/26 10:26:35;;;;;;;26.33;10.98;;;;;;;;;;5039670;28;20017;-75
2022/04/26 10:29:12;;;;;;;27.70;12.05;;;;;;;;;;5051463;28;20344;-76
2022/04/26 10:31:48;;;;;;;25.83;10.30;;;;;;;;;;5053032;28;20021;-74
2022/04/26 10:34:41;;;;;;;26.83;9.90;;;;;;;;;;5055083;28;20013;-76
2022/04/26 10:37:10;;;;;;;23.13;9.73;;;;;;;;;;5048725;28;20029;-76
2022/04/26 10:39:43;;;;;;;23.92;10.10;;;;;;;;;;5039100;28;20281;-76
2022/04/26 10:42:29;;;;;;;31.83;10.85;;;;;;;;;;5038294;28;20039;-76
2022/04/26 10:45:09;;;;;;;26.42;11.45;;;;;;;;;;5034196;28;20018;-75
2022/04/26 10:47:35;;;;;;;21.52;9.88;;;;;;;;;;5036267;28;20166;-75
2022/04/26 10:50:03;;;;;;;35.67;12.23;;;;;;;;;;5025774;28;20035;-76
2022/04/26 10:52:33;;;;;;;90.63;15.07;;;;;;;;;;5055101;28;20051;-75
2022/04/26 10:55:03;;;;;;;29.45;11.65;;;;;;;;;;5042003;28;20042;-76
2022/04/26 10:57:33;;;;;;;26.33;9.45;;;;;;;;;;5035836;28;20025;-75
2022/04/26 11:00:08;;;;;;;41.30;11.98;;;;;;;;;;5052602;28;20017;-76
2022/04/26 11:02:36;;;;;;;27.40;10.85;;;;;;;;;;5053296;28;20183;-76
2022/04/26 11:05:02;;;;;;;22.35;10.55;;;;;;;;;;5033105;28;20071;-75
2022/04/26 11:07:28;;;;;;;28.38;10.88;;;;;;;;;;5056833;28;20017;-75
2022/04/26 11:09:56;;;;;;;23.92;9.75;;;;;;;;;;5048081;28;20025;-76
2022/04/26 11:12:27;;;;;;;34.83;10.23;;;;;;;;;;5033618;28;20044;-75
2022/04/26 11:14:55;;;;;;;27.07;10.10;;;;;;;;;;5033429;28;20033;-75
2022/04/26 11:17:25;;;;;;;30.10;9.88;;;;;;;;;;5038692;28;20262;-76
2022/04/26 11:19:56;;;;;;;42.63;11.68;;;;;;;;;;5033794;28;20024;-75
2022/04/26 11:22:23;;;;;;;21.42;8.50;;;;;;;;;;5030050;28;20067;-75
2022/04/26 11:30:29;;;;;;;44.00;10.57;;;;;;;;;;5053846;28;20624;-75
2022/04/26 11:33:03;;;;;;;20.88;10.40;;;;;;;;;;5037836;28;20028;-75
2022/04/26 11:35:29;;;;;;;26.77;10.50;;;;;;;;;;5046230;28;20030;-75
2022/04/26 11:38:12;;;;;;;31.15;12.00;;;;;;;;;;5035931;28;20067;-76
2022/04/26 11:40:41;;;;;;;26.30;12.43;;;;;;;;;;5042595;28;20009;-78
2022/04/26 11:43:18;;;;;;;22.33;10.95;;;;;;;;;;5051008;28;20127;-76
2022/04/26 11:45:48;;;;;;;26.38;11.52;;;;;;;;;;5041186;28;20024;-76
2022/04/26 11:48:16;;;;;;;29.45;11.15;;;;;;;;;;5054535;28;20045;-75
2022/04/26 11:50:44;;;;;;;27.25;12.20;;;;;;;;;;5043527;28;20005;-76
2022/04/26 11:53:11;;;;;;;30.38;12.57;;;;;;;;;;5058934;28;20021;-76
2022/04/26 11:55:39;;;;;;;33.47;12.90;;;;;;;;;;5037381;28;20036;-76
2022/04/26 11:58:14;;;;;;;35.55;13.63;;;;;;;;;;5055918;28;20168;-76
2022/04/26 12:01:12;;;;;;;25.73;12.30;;;;;;;;;;5039998;28;20019;-75
2022/04/26 12:03:51;;;;;;;27.95;13.60;;;;;;;;;;5052616;28;20020;-76
2022/04/26 12:06:26;;;;;;;28.48;13.60;;;;;;;;;;5035642;28;20009;-76
2022/04/26 12:08:56;;;;;;;24.50;12.85;;;;;;;;;;5039832;28;20017;-77
2022/04/26 12:11:23;;;;;;;35.58;14.13;;;;;;;;;;5054842;28;20094;-76
2022/04/26 12:14:07;;;;;;;25.05;12.35;;;;;;;;;;5026251;28;20017;-75
2022/04/26 12:16:42;;;;;;;39.15;13.15;;;;;;;;;;5036199;28;20041;-76
2022/04/26 12:19:08;;;;;;;31.40;13.75;;;;;;;;;;5050641;28;20034;-76
2022/04/26 12:21:48;;;;;;;36.15;13.68;;;;;;;;;;5043421;28;20255;-76
2022/04/26 12:24:21;;;;;;;28.20;13.20;;;;;;;;;;5053953;28;20294;-77
2022/04/26 12:27:02;;;;;;;31.58;14.40;;;;;;;;;;5035115;28;20040;-76
2022/04/26 12:29:39;;;;;;;28.98;12.48;;;;;;;;;;5040424;28;20017;-75
2022/04/26 12:32:13;;;;;;;29.70;13.10;;;;;;;;;;5058900;28;20025;-76
2022/04/26 12:34:56;;;;;;;33.25;13.85;;;;;;;;;;5041570;28;20093;-77
2022/04/26 12:37:23;;;;;;;30.45;14.02;;;;;;;;;;5036001;28;20419;-76
2022/04/26 12:40:00;;;;;;;29.88;13.38;;;;;;;;;;5037858;28;20018;-76
2022/04/26 12:42:28;;;;;;;37.30;14.30;;;;;;;;;;5028711;28;20271;-76
2022/04/26 12:44:56;;;;;;;25.92;12.10;;;;;;;;;;5055979;28;20021;-76
2022/04/26 12:50:31;;;;;;;30.92;11.63;;;;;;;;;;5038720;28;20303;-76
2022/04/26 12:53:07;;;;;;;25.27;11.75;;;;;;;;;;5041261;28;20020;-75
2022/04/26 12:55:35;;;;;;;32.00;13.27;;;;;;;;;;5031782;28;20013;-75
2022/04/26 12:58:04;;;;;;;33.45;11.63;;;;;;;;;;5056761;28;20083;-75
2022/04/26 13:00:31;;;;;;;30.27;12.40;;;;;;;;;;5039692;28;20294;-75
2022/04/26 13:03:01;;;;;;;29.45;12.05;;;;;;;;;;5033951;28;20017;-75
2022/04/26 13:05:27;;;;;;;30.30;11.82;;;;;;;;;;5039920;28;20024;-75
2022/04/26 13:07:53;;;;;;;30.92;11.82;;;;;;;;;;5031084;28;20145;-76
2022/04/26 13:10:20;;;;;;;31.02;11.88;;;;;;;;;;5035904;28;20298;-76
2022/04/26 13:12:46;;;;;;;25.70;12.20;;;;;;;;;;5034488;28;20077;-76
2022/04/26 13:15:13;;;;;;;36.08;11.38;;;;;;;;;;5032678;28;20040;-76
2022/04/26 13:17:38;;;;;;;31.83;12.85;;;;;;;;;;5020816;28;20023;-76
2022/04/26 13:20:05;;;;;;;33.15;12.15;;;;;;;;;;5031244;28;20025;-74
2022/04/26 13:22:33;;;;;;;24.92;11.45;;;;;;;;;;5037613;28;20025;-74
2022/04/26 13:24:59;;;;;;;33.50;10.73;;;;;;;;;;5037842;28;20148;-75
2022/04/26 13:27:25;;;;;;;32.15;12.77;;;;;;;;;;5036972;28;20020;-75
2022/04/26 13:29:50;;;;;;;29.85;10.60;;;;;;;;;;5039838;28;20075;-76
2022/04/26 13:32:17;;;;;;;25.42;10.50;;;;;;;;;;5050612;28;20259;-74
2022/04/26 13:34:43;;;;;;;35.03;12.55;;;;;;;;;;5048925;28;20021;-74
2022/04/26 13:37:09;;;;;;;34.80;12.73;;;;;;;;;;5037163;28;20075;-74
2022/04/26 13:39:36;;;;;;;22.60;11.30;;;;;;;;;;5056167;28;20017;-74
2022/04/26 13:42:02;;;;;;;30.83;13.77;;;;;;;;;;5033754;28;20017;-75
2022/04/26 13:44:27;;;;;;;26.35;12.75;;;;;;;;;;5033333;28;20017;-73
2022/04/26 13:46:53;;;;;;;33.65;12.73;;;;;;;;;;5016788;28;20176;-74
2022/04/26 13:49:18;;;;;;;34.88;15.02;;;;;;;;;;5025234;28;20040;-74
2022/04/26 13:51:44;;;;;;;42.17;14.75;;;;;;;;;;5049718;28;20017;-74
2022/04/26 13:54:09;;;;;;;35.85;14.32;;;;;;;;;;5034522;28;20218;-75
2022/04/26 13:56:36;;;;;;;37.13;15.07;;;;;;;;;;5018746;28;20031;-75
2022/04/26 13:59:02;;;;;;;56.65;19.83;;;;;;;;;;5050130;28;20171;-75
2022/04/26 14:01:27;;;;;;;50.13;19.17;;;;;;;;;;5035174;28;20040;-74
2022/04/26 14:03:53;;;;;;;45.53;18.67;;;;;;;;;;5038887;28;20016;-75
2022/04/26 14:06:21;;;;;;;52.10;20.48;;;;;;;;;;5032288;28;20021;-76
2022/04/26 14:08:50;;;;;;;45.35;21.23;;;;;;;;;;5030915;28;20278;-76
2022/04/26 14:11:17;;;;;;;54.42;20.75;;;;;;;;;;5045234;28;20024;-75
2022/04/26 14:21:54;;;;;;;43.88;17.50;;;;;;;;;;5049885;28;20012;-77
2022/04/26 14:24:20;;;;;;;40.90;17.73;;;;;;;;;;5020057;28;20017;-76
2022/04/26 14:26:45;;;;;;;42.08;18.58;;;;;;;;;;5063135;28;20272;-76
2022/04/26 14:29:11;;;;;;;41.65;19.45;;;;;;;;;;5037406;28;20110;-76
2022/04/26 14:31:36;;;;;;;60.53;20.58;;;;;;;;;;5035243;28;20022;-76
2022/04/26 14:34:03;;;;;;;47.72;20.33;;;;;;;;;;5022556;28;20029;-77
2022/04/26 14:36:28;;;;;;;41.22;18.25;;;;;;;;;;5035428;28;20025;-80
2022/04/26 14:38:54;;;;;;;34.30;16.63;;;;;;;;;;5005058;28;20096;-80
2022/04/26 14:41:20;;;;;;;35.05;16.90;;;;;;;;;;5050746;28;20019;-80
2022/04/26 14:43:45;;;;;;;39.17;16.90;;;;;;;;;;5025061;28;20020;-80
2022/04/26 14:46:11;;;;;;;41.85;17.75;;;;;;;;;;5016461;28;20095;-80
2022/04/26 14:48:38;;;;;;;40.28;17.77;;;;;;;;;;5016352;28;20092;-79
2022/04/26 14:51:04;;;;;;;45.38;20.15;;;;;;;;;;5052087;28;20075;-80
2022/04/26 14:53:30;;;;;;;43.33;19.05;;;;;;;;;;5019612;28;20380;-80
2022/04/26 14:55:58;;;;;;;37.13;18.20;;;;;;;;;;5051629;28;20021;-80
2022/04/26 14:58:23;;;;;;;45.58;19.40;;;;;;;;;;5053873;28;20024;-80
2022/04/26 15:00:49;;;;;;;50.45;18.80;;;;;;;;;;5038524;28;20017;-79
2022/04/26 15:03:14;;;;;;;37.70;15.98;;;;;;;;;;5038614;28;20013;-78
2022/04/26 15:05:40;;;;;;;40.58;17.33;;;;;;;;;;5034743;28;20024;-78
2022/04/26 15:10:49;;;;;;;46.22;18.63;;;;;;;;;;5051608;28;20019;-80
2022/04/26 15:18:43;;;;;;;38.28;17.88;;;;;;;;;;5022648;28;20033;-79
2022/04/26 15:21:09;;;;;;;44.55;18.25;;;;;;;;;;5018205;28;20197;-79
2022/04/26 15:23:35;;;;;;;45.35;17.88;;;;;;;;;;5023736;28;20028;-79
2022/04/26 15:26:06;;;;;;;41.30;17.88;;;;;;;;;;5022994;28;20048;-78
2022/04/26 15:28:33;;;;;;;43.80;18.02;;;;;;;;;;5035360;28;20017;-75
2022/04/26 15:30:59;;;;;;;42.92;18.45;;;;;;;;;;5019913;28;20021;-74
2022/04/26 15:33:25;;;;;;;40.50;16.80;;;;;;;;;;5045563;28;20018;-75
2022/04/26 15:35:51;;;;;;;43.70;17.70;;;;;;;;;;5011542;28;20092;-75
2022/04/26 15:38:18;;;;;;;40.60;18.20;;;;;;;;;;5037372;28;20032;-74
2022/04/26 15:40:50;;;;;;;47.97;17.90;;;;;;;;;;5060064;28;20017;-75
2022/04/26 15:43:15;;;;;;;29.48;14.27;;;;;;;;;;5032014;28;20117;-75
2022/04/26 15:45:42;;;;;;;32.58;14.38;;;;;;;;;;5031071;28;20223;-76
2022/04/26 15:48:08;;;;;;;27.92;14.40;;;;;;;;;;5039289;28;20025;-75
2022/04/26 15:50:34;;;;;;;25.30;11.30;;;;;;;;;;5036321;28;20060;-75
2022/04/26 15:53:00;;;;;;;33.85;14.45;;;;;;;;;;5036966;28;20026;-75
2022/04/26 15:55:25;;;;;;;27.30;11.73;;;;;;;;;;5050938;28;20014;-74
2022/04/26 15:57:52;;;;;;;23.92;10.70;;;;;;;;;;5038249;28;20017;-75
2022/04/26 16:00:20;;;;;;;30.98;14.30;;;;;;;;;;5035719;28;20025;-75
2022/04/26 16:02:49;;;;;;;28.33;11.98;;;;;;;;;;5051411;28;20010;-74
2022/04/26 16:05:15;;;;;;;34.28;13.68;;;;;;;;;;5016912;28;20025;-75
2022/04/26 16:07:41;;;;;;;28.80;12.85;;;;;;;;;;5045760;28;20282;-75
2022/04/26 16:21:04;;;;;;;26.52;10.02;;;;;;;;;;5048925;28;20176;-75
2022/04/26 16:23:30;;;;;;;28.60;11.75;;;;;;;;;;5055038;28;20303;-75
2022/04/26 16:26:01;;;;;;;27.30;11.85;;;;;;;;;;5023259;28;20212;-75
2022/04/26 16:28:30;;;;;;;23.42;11.50;;;;;;;;;;5041580;28;20092;-75
2022/04/26 16:30:55;;;;;;;22.83;11.43;;;;;;;;;;5040941;28;20056;-76
2022/04/26 16:33:21;;;;;;;28.92;12.25;;;;;;;;;;5037855;28;20084;-75
2022/04/26 16:35:46;;;;;;;31.63;13.02;;;;;;;;;;5023286;28;20128;-76
2022/04/26 16:38:12;;;;;;;22.92;11.98;;;;;;;;;;5036293;28;20032;-76
2022/04/26 16:40:38;;;;;;;30.15;14.00;;;;;;;;;;5034509;28;20013;-75
2022/04/26 16:43:04;;;;;;;33.92;15.02;;;;;;;;;;5038725;28;20175;-76
2022/04/26 16:45:30;;;;;;;30.38;13.68;;;;;;;;;;5054231;28;20257;-75
2022/04/26 16:47:56;;;;;;;32.47;15.82;;;;;;;;;;5006769;28;20026;-75
2022/04/26 16:50:22;;;;;;;40.92;13.98;;;;;;;;;;5027966;28;20033;-75
2022/04/26 16:52:49;;;;;;;34.30;13.70;;;;;;;;;;5040247;28;20349;-76
2022/04/26 16:55:15;;;;;;;41.42;15.20;;;;;;;;;;5039770;28;20105;-75
2022/04/26 16:57:41;;;;;;;27.17;13.60;;;;;;;;;;5015355;28;20153;-76
2022/04/26 17:00:08;;;;;;;32.42;14.98;;;;;;;;;;5038850;28;20040;-75
2022/04/26 17:02:33;;;;;;;31.13;13.50;;;;;;;;;;5041230;28;20017;-75
2022/04/26 17:04:59;;;;;;;34.92;15.85;;;;;;;;;;5035520;28;20274;-76
2022/04/26 17:07:27;;;;;;;30.85;14.60;;;;;;;;;;5049294;28;20025;-75
2022/04/26 17:09:53;;;;;;;33.40;15.13;;;;;;;;;;5035704;28;20017;-76
2022/04/26 17:12:18;;;;;;;35.08;14.82;;;;;;;;;;5036749;28;20167;-76
2022/04/26 17:14:44;;;;;;;32.10;14.73;;;;;;;;;;5035815;28;21031;-75
2022/04/26 17:17:13;;;;;;;32.72;13.50;;;;;;;;;;5059912;28;20017;-75
2022/04/26 17:19:39;;;;;;;35.25;15.43;;;;;;;;;;5017221;28;20384;-75
2022/04/26 17:22:04;;;;;;;35.65;16.55;;;;;;;;;;5026359;28;20022;-75
2022/04/26 17:27:14;;;;;;;31.95;16.50;;;;;;;;;;5039986;28;20029;-76
2022/04/26 17:29:39;;;;;;;32.53;15.90;;;;;;;;;;5061240;28;20104;-76
2022/04/26 17:32:05;;;;;;;30.13;14.70;;;;;;;;;;5027051;28;20057;-76
2022/04/26 17:34:31;;;;;;;31.92;15.80;;;;;;;;;;5014553;28;20021;-76
2022/04/26 17:36:57;;;;;;;35.15;15.25;;;;;;;;;;5032093;28;20414;-80
2022/04/26 17:39:23;;;;;;;31.17;15.20;;;;;;;;;;5034954;28;20562;-81
2022/04/26 17:41:49;;;;;;;34.70;16.08;;;;;;;;;;5033562;28;20045;-81
2022/04/26 17:44:16;;;;;;;38.38;15.70;;;;;;;;;;5047139;28;20084;-81
2022/04/26 17:46:42;;;;;;;38.20;15.95;;;;;;;;;;5017160;28;20263;-80
2022/04/26 17:49:08;;;;;;;24.48;13.77;;;;;;;;;;5049911;28;20402;-80
2022/04/26 17:51:33;;;;;;;43.95;15.70;;;;;;;;;;5035652;28;20028;-80
2022/04/26 17:56:45;;;;;;;33.38;15.82;;;;;;;;;;5058239;28;20329;-80
2022/04/26 17:59:11;;;;;;;39.08;15.07;;;;;;;;;;5035347;28;20104;-80
2022/04/26 18:01:37;;;;;;;36.78;14.93;;;;;;;;;;5052179;28;20020;-79
2022/04/26 18:04:04;;;;;;;34.05;14.73;;;;;;;;;;5033600;28;20112;-81
2022/04/26 18:06:30;;;;;;;38.45;15.20;;;;;;;;;;5045014;28;20044;-80
2022/04/26 18:08:56;;;;;;;26.95;14.48;;;;;;;;;;5035475;28;20052;-81
2022/04/26 18:11:22;;;;;;;30.33;15.00;;;;;;;;;;5035071;28;20071;-80
2022/04/26 18:13:52;;;;;;;38.75;14.57;;;;;;;;;;5052305;28;20059;-80
2022/04/26 18:16:19;;;;;;;37.65;13.80;;;;;;;;;;5034229;28;20040;-80
2022/04/26 18:18:44;;;;;;;27.75;12.73;;;;;;;;;;5018156;28;20172;-80
2022/04/26 18:21:12;;;;;;;26.15;12.45;;;;;;;;;;5035382;28;20016;-79
2022/04/26 18:23:37;;;;;;;27.90;13.50;;;;;;;;;;5052560;28;20060;-80
2022/04/26 18:26:12;;;;;;;43.22;13.40;;;;;;;;;;5035752;28;20021;-79
2022/04/26 18:28:43;;;;;;;34.28;17.33;;;;;;;;;;5006289;28;20035;-79
2022/04/26 18:31:11;;;;;;;38.80;16.00;;;;;;;;;;5036643;28;20020;-78
2022/04/26 18:33:37;;;;;;;30.55;12.75;;;;;;;;;;5035545;28;20041;-79
2022/04/26 18:36:06;;;;;;;36.38;12.07;;;;;;;;;;5032256;28;20440;-76
2022/04/26 18:38:32;;;;;;;24.63;11.63;;;;;;;;;;5050632;28;20013;-75
2022/04/26 18:40:58;;;;;;;27.33;11.48;;;;;;;;;;5033222;28;20023;-79
2022/04/26 18:43:24;;;;;;;29.33;12.95;;;;;;;;;;5029585;28;20021;-79
2022/04/26 18:45:49;;;;;;;28.10;11.77;;;;;;;;;;5017612;28;20109;-79
2022/04/26 18:48:15;;;;;;;30.30;12.70;;;;;;;;;;5015260;28;20048;-79
2022/04/26 18:50:41;;;;;;;28.92;11.98;;;;;;;;;;5036034;28;20019;-79
2022/04/26 18:53:10;;;;;;;28.42;12.10;;;;;;;;;;5041845;28;20020;-79
2022/04/26 18:55:37;;;;;;;34.65;11.95;;;;;;;;;;5052110;28;20040;-79
2022/04/26 18:58:02;;;;;;;22.17;11.90;;;;;;;;;;5021388;28;20028;-79